createdAt,value
2018-12-15T00:00:00.723Z,13.30
2018-12-15T00:01:00.668Z,13.60
2018-12-15T00:02:00.611Z,13.30
2018-12-15T00:03:00.552Z,13.60
2018-12-15T00:04:00.517Z,13.50
2018-12-15T00:05:00.465Z,13.30
2018-12-15T00:06:00.378Z,13.60
2018-12-15T00:07:00.318Z,13.40
2018-12-15T00:08:00.258Z,13.60
2018-12-15T00:09:00.203Z,13.80
2018-12-15T00:10:00.172Z,13.20
2018-12-15T00:11:00.092Z,13.00
2018-12-15T00:12:00.033Z,13.20
2018-12-15T00:12:59.974Z,13.30
2018-12-15T00:13:59.922Z,12.40
2018-12-15T00:14:59.882Z,13.50
2018-12-15T00:15:59.800Z,12.80
2018-12-15T00:17:05.560Z,13.50
2018-12-15T00:17:59.691Z,12.70
2018-12-15T00:18:59.634Z,12.80
2018-12-15T00:19:59.600Z,13.40
2018-12-15T00:20:59.514Z,13.40
2018-12-15T00:21:59.459Z,13.10
2018-12-15T00:22:59.401Z,12.60
2018-12-15T00:23:59.343Z,14.10
2018-12-15T00:24:59.313Z,13.70
2018-12-15T00:25:59.231Z,13.20
2018-12-15T00:26:59.174Z,13.50
2018-12-15T00:27:59.115Z,13.00
2018-12-15T00:28:59.058Z,13.80
2018-12-15T00:29:59.024Z,13.60
2018-12-15T00:30:58.946Z,13.10
2018-12-15T00:31:58.921Z,12.90
2018-12-15T00:32:58.826Z,13.00
2018-12-15T00:33:58.770Z,13.50
2018-12-15T00:34:58.738Z,12.90
2018-12-15T00:35:58.658Z,12.70
2018-12-15T00:36:58.595Z,12.70
2018-12-15T00:37:58.540Z,13.20
2018-12-15T00:38:58.482Z,13.30
2018-12-15T00:39:58.449Z,12.70
2018-12-15T00:40:58.366Z,13.30
2018-12-15T00:41:58.311Z,12.90
2018-12-15T00:42:58.258Z,13.50
2018-12-15T00:43:58.196Z,13.00
2018-12-15T00:44:58.168Z,13.40
2018-12-15T00:45:58.082Z,12.80
2018-12-15T00:46:58.029Z,13.90
2018-12-15T00:47:57.967Z,12.90
2018-12-15T00:48:57.911Z,12.20
2018-12-15T00:49:57.876Z,13.00
2018-12-15T00:50:57.796Z,13.10
2018-12-15T00:51:57.757Z,13.40
2018-12-15T00:52:57.684Z,13.40
2018-12-15T00:53:57.622Z,13.30
2018-12-15T00:54:57.593Z,13.10
2018-12-15T00:55:57.509Z,12.90
2018-12-15T00:56:57.453Z,13.30
2018-12-15T00:57:57.411Z,13.10
2018-12-15T00:58:57.341Z,13.60
2018-12-15T00:59:57.302Z,13.00
2018-12-15T01:00:57.225Z,12.90
2018-12-15T01:01:57.167Z,12.80
2018-12-15T01:02:57.108Z,13.30
2018-12-15T01:03:57.052Z,13.20
2018-12-15T01:04:57.019Z,12.90
2018-12-15T01:05:56.938Z,12.30
2018-12-15T01:06:56.884Z,12.90
2018-12-15T01:07:56.823Z,13.20
2018-12-15T01:08:56.763Z,13.30
2018-12-15T01:09:56.732Z,13.30
2018-12-15T01:10:56.653Z,12.30
2018-12-15T01:11:56.593Z,12.80
2018-12-15T01:12:56.538Z,12.00
2018-12-15T01:13:56.479Z,12.80
2018-12-15T01:14:56.423Z,13.00
2018-12-15T01:15:56.388Z,12.90
2018-12-15T01:16:56.308Z,12.90
2018-12-15T01:17:56.249Z,12.90
2018-12-15T01:18:56.194Z,12.80
2018-12-15T01:19:56.148Z,12.90
2018-12-15T01:20:56.104Z,13.00
2018-12-15T01:21:56.020Z,13.30
2018-12-15T01:22:55.971Z,13.00
2018-12-15T01:23:55.908Z,12.80
2018-12-15T01:24:55.849Z,13.70
2018-12-15T01:25:55.816Z,12.70
2018-12-15T01:26:55.734Z,12.80
2018-12-15T01:27:55.675Z,13.10
2018-12-15T01:28:55.620Z,12.80
2018-12-15T01:29:55.564Z,12.10
2018-12-15T01:30:55.537Z,13.00
2018-12-15T01:31:55.449Z,12.50
2018-12-15T01:32:55.390Z,12.90
2018-12-15T01:33:55.332Z,12.30
2018-12-15T01:34:55.277Z,12.90
2018-12-15T01:35:55.243Z,13.00
2018-12-15T01:36:55.160Z,13.20
2018-12-15T01:37:55.106Z,12.80
2018-12-15T01:38:55.043Z,12.70
2018-12-15T01:39:54.990Z,12.80
2018-12-15T01:40:54.955Z,12.60
2018-12-15T01:41:54.877Z,13.00
2018-12-15T01:42:54.815Z,12.80
2018-12-15T01:43:54.761Z,12.60
2018-12-15T01:44:54.705Z,12.30
2018-12-15T01:45:54.646Z,13.10
2018-12-15T01:46:54.619Z,12.70
2018-12-15T01:47:54.534Z,12.20
2018-12-15T01:48:54.476Z,13.40
2018-12-15T01:49:54.417Z,12.30
2018-12-15T01:50:54.362Z,12.80
2018-12-15T01:51:54.324Z,12.50
2018-12-15T01:52:54.246Z,12.80
2018-12-15T01:53:54.188Z,12.70
2018-12-15T01:54:54.138Z,12.60
2018-12-15T01:55:54.077Z,12.90
2018-12-15T01:56:54.043Z,12.50
2018-12-15T01:57:53.961Z,12.00
2018-12-15T01:58:53.911Z,12.70
2018-12-15T01:59:53.850Z,13.00
2018-12-15T02:00:53.784Z,12.00
2018-12-15T02:01:53.755Z,13.00
2018-12-15T02:02:53.677Z,12.50
2018-12-15T02:03:53.617Z,13.10
2018-12-15T02:04:53.561Z,12.80
2018-12-15T02:05:53.502Z,13.10
2018-12-15T02:06:53.470Z,12.60
2018-12-15T02:07:53.384Z,13.20
2018-12-15T02:08:53.328Z,12.20
2018-12-15T02:09:53.276Z,12.30
2018-12-15T02:10:53.216Z,12.80
2018-12-15T02:11:53.182Z,12.40
2018-12-15T02:12:53.102Z,12.80
2018-12-15T02:13:53.043Z,12.50
2018-12-15T02:14:52.999Z,12.10
2018-12-15T02:15:52.934Z,12.00
2018-12-15T02:16:52.896Z,13.10
2018-12-15T02:17:52.817Z,13.30
2018-12-15T02:18:52.760Z,12.30
2018-12-15T02:19:52.698Z,12.40
2018-12-15T02:20:52.639Z,11.60
2018-12-15T02:21:52.612Z,12.40
2018-12-15T02:22:52.528Z,12.20
2018-12-15T02:23:52.476Z,12.90
2018-12-15T02:24:52.418Z,13.30
2018-12-15T02:25:52.358Z,12.70
2018-12-15T02:26:52.321Z,12.70
2018-12-15T02:27:52.242Z,12.10
2018-12-15T02:28:52.187Z,13.10
2018-12-15T02:29:52.128Z,12.60
2018-12-15T02:30:52.070Z,12.20
2018-12-15T02:31:52.038Z,13.00
2018-12-15T02:32:51.959Z,12.70
2018-12-15T02:33:51.898Z,12.50
2018-12-15T02:34:51.842Z,12.40
2018-12-15T02:35:51.788Z,12.90
2018-12-15T02:36:51.749Z,12.20
2018-12-15T02:37:51.672Z,12.60
2018-12-15T02:38:51.617Z,12.90
2018-12-15T02:39:51.554Z,13.00
2018-12-15T02:40:51.494Z,12.50
2018-12-15T02:41:51.470Z,12.40
2018-12-15T02:42:51.408Z,12.30
2018-12-15T02:43:51.330Z,12.70
2018-12-15T02:44:51.273Z,12.70
2018-12-15T02:45:51.215Z,12.70
2018-12-15T02:46:51.182Z,12.20
2018-12-15T02:47:51.098Z,13.20
2018-12-15T02:48:51.043Z,12.80
2018-12-15T02:49:50.980Z,13.50
2018-12-15T02:50:50.934Z,12.10
2018-12-15T02:51:50.898Z,12.70
2018-12-15T02:52:50.813Z,12.40
2018-12-15T02:53:50.760Z,12.70
2018-12-15T02:54:50.698Z,13.00
2018-12-15T02:55:50.643Z,12.40
2018-12-15T02:56:50.626Z,12.50
2018-12-15T02:57:50.530Z,12.50
2018-12-15T02:58:50.473Z,12.70
2018-12-15T02:59:50.416Z,12.60
2018-12-15T03:00:50.358Z,12.30
2018-12-15T03:01:50.300Z,12.50
2018-12-15T03:02:50.267Z,12.90
2018-12-15T03:03:50.180Z,12.60
2018-12-15T03:04:50.131Z,12.50
2018-12-15T03:05:50.071Z,12.70
2018-12-15T03:06:50.019Z,12.80
2018-12-15T03:07:49.981Z,13.00
2018-12-15T03:08:49.899Z,12.40
2018-12-15T03:09:49.844Z,13.10
2018-12-15T03:10:49.781Z,13.20
2018-12-15T03:11:49.725Z,12.90
2018-12-15T03:12:49.693Z,13.30
2018-12-15T03:13:49.622Z,12.90
2018-12-15T03:14:49.554Z,13.00
2018-12-15T03:15:49.501Z,12.30
2018-12-15T03:16:49.439Z,12.20
2018-12-15T03:17:49.410Z,13.40
2018-12-15T03:18:49.330Z,12.70
2018-12-15T03:19:49.270Z,13.00
2018-12-15T03:20:49.217Z,12.70
2018-12-15T03:21:49.157Z,12.80
2018-12-15T03:22:49.122Z,12.30
2018-12-15T03:23:49.040Z,13.00
2018-12-15T03:24:48.984Z,12.30
2018-12-15T03:25:48.929Z,12.40
2018-12-15T03:26:48.881Z,12.90
2018-12-15T03:27:48.834Z,12.40
2018-12-15T03:28:48.754Z,13.10
2018-12-15T03:29:48.696Z,12.20
2018-12-15T03:30:48.641Z,12.00
2018-12-15T03:31:48.588Z,12.40
2018-12-15T03:32:48.554Z,13.00
2018-12-15T03:33:48.476Z,13.00
2018-12-15T03:34:48.413Z,12.50
2018-12-15T03:35:48.354Z,12.40
2018-12-15T03:36:48.299Z,12.70
2018-12-15T03:37:48.267Z,12.80
2018-12-15T03:38:48.184Z,13.20
2018-12-15T03:39:48.126Z,12.50
2018-12-15T03:40:48.070Z,12.70
2018-12-15T03:41:48.015Z,13.00
2018-12-15T03:42:47.978Z,12.70
2018-12-15T03:43:47.896Z,12.50
2018-12-15T03:44:47.840Z,13.20
2018-12-15T03:45:47.789Z,12.00
2018-12-15T03:46:47.728Z,12.20
2018-12-15T03:47:47.697Z,12.70
2018-12-15T03:48:47.611Z,12.20
2018-12-15T03:49:47.559Z,12.30
2018-12-15T03:50:47.499Z,11.70
2018-12-15T03:51:47.441Z,12.80
2018-12-15T03:52:47.407Z,12.20
2018-12-15T03:53:47.326Z,12.20
2018-12-15T03:54:47.274Z,12.10
2018-12-15T03:55:47.210Z,12.40
2018-12-15T03:56:47.156Z,12.60
2018-12-15T03:57:47.123Z,12.30
2018-12-15T03:58:47.045Z,12.10
2018-12-15T03:59:46.981Z,12.30
2018-12-15T04:00:46.926Z,12.10
2018-12-15T04:01:46.872Z,12.20
2018-12-15T04:02:46.839Z,11.70
2018-12-15T04:03:46.753Z,12.00
2018-12-15T04:04:46.700Z,12.00
2018-12-15T04:05:46.645Z,11.50
2018-12-15T04:06:46.583Z,11.90
2018-12-15T04:07:46.549Z,11.40
2018-12-15T04:08:46.490Z,11.80
2018-12-15T04:09:46.419Z,11.80
2018-12-15T04:10:46.366Z,11.70
2018-12-15T04:11:46.305Z,11.20
2018-12-15T04:12:46.241Z,11.40
2018-12-15T04:13:46.206Z,11.40
2018-12-15T04:14:46.130Z,10.70
2018-12-15T04:15:46.069Z,11.10
2018-12-15T04:16:46.003Z,11.50
2018-12-15T04:17:45.963Z,11.00
2018-12-15T04:18:45.923Z,11.20
2018-12-15T04:19:45.864Z,11.40
2018-12-15T04:20:45.803Z,11.10
2018-12-15T04:21:45.730Z,11.50
2018-12-15T04:22:45.673Z,10.60
2018-12-15T04:23:45.635Z,10.90
2018-12-15T04:24:45.558Z,10.60
2018-12-15T04:25:45.501Z,11.20
2018-12-15T04:26:45.452Z,10.30
2018-12-15T04:27:45.387Z,10.60
2018-12-15T04:28:45.355Z,10.50
2018-12-15T04:29:45.272Z,9.90
2018-12-15T04:30:45.216Z,10.60
2018-12-15T04:31:45.156Z,10.10
2018-12-15T04:32:45.557Z,10.10
2018-12-15T04:33:45.069Z,10.30
2018-12-15T04:34:44.995Z,10.30
2018-12-15T04:35:44.927Z,10.10
2018-12-15T04:36:44.944Z,10.20
2018-12-15T04:37:44.812Z,10.60
2018-12-15T04:38:44.818Z,10.70
2018-12-15T04:39:44.701Z,10.10
2018-12-15T04:40:44.637Z,9.80
2018-12-15T04:41:44.588Z,10.20
2018-12-15T04:42:44.528Z,9.60
2018-12-15T04:43:44.494Z,10.00
2018-12-15T04:44:44.413Z,10.10
2018-12-15T04:45:44.356Z,10.00
2018-12-15T04:46:44.302Z,10.20
2018-12-15T04:47:44.245Z,10.40
2018-12-15T04:48:44.212Z,9.50
2018-12-15T04:49:44.126Z,10.10
2018-12-15T04:50:44.071Z,9.80
2018-12-15T04:51:44.012Z,10.00
2018-12-15T04:52:43.956Z,10.00
2018-12-15T04:53:43.922Z,10.20
2018-12-15T04:54:43.838Z,9.50
2018-12-15T04:55:43.783Z,9.50
2018-12-15T04:56:43.728Z,9.80
2018-12-15T04:57:43.672Z,10.50
2018-12-15T04:58:43.661Z,10.30
2018-12-15T04:59:43.557Z,9.90
2018-12-15T05:00:43.504Z,9.90
2018-12-15T05:01:43.442Z,9.80
2018-12-15T05:02:43.922Z,9.70
2018-12-15T05:03:43.323Z,10.20
2018-12-15T05:04:43.296Z,10.20
2018-12-15T05:05:43.212Z,9.40
2018-12-15T05:06:43.157Z,10.30
2018-12-15T05:07:43.099Z,9.50
2018-12-15T05:08:43.041Z,9.20
2018-12-15T05:09:43.010Z,10.00
2018-12-15T05:10:42.927Z,9.60
2018-12-15T05:11:42.877Z,10.50
2018-12-15T05:12:42.813Z,9.10
2018-12-15T05:13:42.757Z,10.20
2018-12-15T05:14:42.722Z,9.90
2018-12-15T05:15:42.641Z,9.70
2018-12-15T05:16:42.582Z,9.80
2018-12-15T05:17:42.527Z,10.30
2018-12-15T05:18:42.472Z,10.40
2018-12-15T05:19:42.436Z,9.50
2018-12-15T05:20:42.357Z,9.30
2018-12-15T05:21:42.292Z,9.70
2018-12-15T05:22:42.243Z,10.00
2018-12-15T05:23:42.182Z,10.00
2018-12-15T05:24:42.151Z,9.40
2018-12-15T05:25:42.067Z,9.30
2018-12-15T05:26:42.015Z,9.90
2018-12-15T05:27:41.957Z,9.90
2018-12-15T05:28:41.899Z,10.20
2018-12-15T05:29:41.869Z,9.50
2018-12-15T05:30:41.787Z,10.10
2018-12-15T05:31:41.732Z,9.90
2018-12-15T05:32:41.672Z,10.20
2018-12-15T05:33:41.609Z,10.00
2018-12-15T05:34:41.585Z,9.70
2018-12-15T05:35:41.498Z,9.70
2018-12-15T05:36:42.505Z,9.40
2018-12-15T05:37:41.387Z,10.00
2018-12-15T05:38:41.327Z,10.10
2018-12-15T05:39:41.290Z,10.70
2018-12-15T05:40:41.217Z,9.80
2018-12-15T05:41:41.157Z,9.90
2018-12-15T05:42:41.097Z,9.10
2018-12-15T05:43:41.042Z,10.20
2018-12-15T05:44:41.011Z,9.40
2018-12-15T05:45:40.928Z,9.80
2018-12-15T05:46:40.873Z,10.10
2018-12-15T05:47:40.815Z,9.60
2018-12-15T05:48:40.759Z,10.00
2018-12-15T05:49:40.726Z,10.20
2018-12-15T05:50:40.642Z,10.60
2018-12-15T05:51:40.584Z,10.20
2018-12-15T05:52:40.529Z,9.60
2018-12-15T05:53:40.471Z,9.60
2018-12-15T05:54:40.462Z,9.70
2018-12-15T05:55:40.357Z,9.90
2018-12-15T05:56:40.298Z,9.30
2018-12-15T05:57:40.241Z,9.80
2018-12-15T05:58:40.184Z,10.00
2018-12-15T05:59:40.128Z,10.00
2018-12-15T06:00:40.093Z,10.30
2018-12-15T06:01:40.019Z,9.80
2018-12-15T06:02:39.954Z,10.30
2018-12-15T06:03:39.903Z,10.30
2018-12-15T06:04:39.844Z,10.30
2018-12-15T06:05:39.810Z,10.40
2018-12-15T06:06:39.728Z,9.90
2018-12-15T06:07:39.668Z,9.80
2018-12-15T06:08:39.613Z,10.20
2018-12-15T06:09:39.558Z,10.10
2018-12-15T06:10:39.528Z,10.10
2018-12-15T06:11:39.443Z,10.00
2018-12-15T06:12:39.384Z,10.10
2018-12-15T06:13:39.332Z,10.00
2018-12-15T06:14:39.265Z,10.20
2018-12-15T06:15:39.239Z,10.40
2018-12-15T06:16:39.172Z,10.10
2018-12-15T06:17:39.100Z,10.30
2018-12-15T06:18:39.043Z,10.20
2018-12-15T06:19:38.984Z,10.10
2018-12-15T06:20:38.952Z,10.70
2018-12-15T06:21:38.870Z,10.30
2018-12-15T06:22:38.822Z,9.80
2018-12-15T06:23:38.759Z,10.20
2018-12-15T06:24:38.700Z,10.80
2018-12-15T06:25:38.668Z,10.70
2018-12-15T06:26:38.587Z,10.50
2018-12-15T06:27:38.533Z,10.80
2018-12-15T06:28:38.470Z,10.70
2018-12-15T06:29:38.418Z,10.80
2018-12-15T06:30:38.383Z,11.20
2018-12-15T06:31:38.299Z,10.60
2018-12-15T06:32:38.244Z,11.00
2018-12-15T06:33:38.184Z,10.40
2018-12-15T06:34:38.129Z,10.70
2018-12-15T06:35:38.093Z,10.10
2018-12-15T06:36:38.015Z,10.20
2018-12-15T06:37:37.959Z,10.10
2018-12-15T06:38:37.900Z,10.60
2018-12-15T06:39:37.844Z,10.40
2018-12-15T06:40:37.808Z,10.90
2018-12-15T06:41:37.731Z,10.70
2018-12-15T06:42:37.674Z,10.00
2018-12-15T06:43:37.618Z,10.60
2018-12-15T06:44:37.559Z,10.80
2018-12-15T06:45:37.528Z,10.80
2018-12-15T06:46:37.446Z,10.50
2018-12-15T06:47:37.409Z,10.50
2018-12-15T06:48:38.322Z,10.30
2018-12-15T06:49:37.274Z,10.30
2018-12-15T06:50:37.215Z,10.40
2018-12-15T06:51:37.187Z,9.70
2018-12-15T06:52:37.107Z,10.00
2018-12-15T06:53:37.044Z,10.70
2018-12-15T06:54:36.980Z,10.40
2018-12-15T06:55:36.930Z,10.80
2018-12-15T06:56:36.890Z,10.50
2018-12-15T06:57:36.815Z,11.40
2018-12-15T06:58:36.761Z,10.90
2018-12-15T06:59:36.700Z,10.60
2018-12-15T07:00:36.644Z,10.10
2018-12-15T07:01:36.614Z,10.60
2018-12-15T07:02:36.529Z,10.70
2018-12-15T07:03:36.469Z,10.00
2018-12-15T07:04:36.414Z,10.00
2018-12-15T07:05:36.367Z,10.00
2018-12-15T07:06:36.323Z,10.70
2018-12-15T07:07:36.244Z,10.40
2018-12-15T07:08:36.188Z,10.10
2018-12-15T07:09:36.132Z,10.40
2018-12-15T07:10:36.069Z,10.60
2018-12-15T07:11:36.038Z,10.80
2018-12-15T07:12:35.958Z,11.00
2018-12-15T07:13:35.900Z,10.90
2018-12-15T07:14:35.844Z,10.60
2018-12-15T07:15:35.785Z,10.90
2018-12-15T07:16:35.749Z,10.40
2018-12-15T07:17:35.670Z,10.60
2018-12-15T07:18:35.614Z,11.10
2018-12-15T07:19:35.554Z,10.40
2018-12-15T07:20:35.499Z,11.00
2018-12-15T07:21:35.480Z,11.00
2018-12-15T07:22:35.385Z,11.00
2018-12-15T07:23:35.325Z,11.20
2018-12-15T07:24:35.281Z,10.70
2018-12-15T07:25:35.215Z,10.70
2018-12-15T07:26:35.181Z,10.70
2018-12-15T07:27:35.095Z,10.70
2018-12-15T07:28:35.041Z,11.30
2018-12-15T07:29:34.986Z,10.80
2018-12-15T07:30:34.925Z,10.90
2018-12-15T07:31:34.893Z,11.40
2018-12-15T07:32:34.813Z,10.60
2018-12-15T07:33:34.755Z,10.30
2018-12-15T07:34:34.699Z,10.80
2018-12-15T07:35:34.642Z,11.10
2018-12-15T07:36:34.608Z,11.10
2018-12-15T07:37:34.536Z,10.60
2018-12-15T07:38:34.470Z,10.70
2018-12-15T07:39:34.411Z,11.40
2018-12-15T07:40:34.355Z,10.60
2018-12-15T07:41:34.324Z,10.80
2018-12-15T07:42:34.245Z,10.80
2018-12-15T07:43:34.181Z,11.20
2018-12-15T07:44:34.125Z,11.10
2018-12-15T07:45:34.075Z,11.60
2018-12-15T07:46:34.035Z,11.10
2018-12-15T07:47:33.943Z,11.00
2018-12-15T07:48:33.898Z,11.10
2018-12-15T07:49:33.840Z,10.60
2018-12-15T07:50:33.786Z,10.80
2018-12-15T07:51:33.746Z,11.00
2018-12-15T07:52:33.668Z,10.30
2018-12-15T07:53:33.611Z,10.40
2018-12-15T07:54:33.570Z,10.70
2018-12-15T07:55:33.496Z,10.80
2018-12-15T07:56:33.496Z,10.60
2018-12-15T07:57:33.381Z,10.80
2018-12-15T07:58:33.326Z,10.30
2018-12-15T07:59:33.332Z,10.70
2018-12-15T08:00:33.211Z,10.20
2018-12-15T08:01:33.281Z,10.90
2018-12-15T08:02:33.114Z,10.40
2018-12-15T08:03:33.039Z,10.50
2018-12-15T08:04:32.982Z,10.30
2018-12-15T08:05:32.956Z,10.40
2018-12-15T08:06:32.868Z,10.40
2018-12-15T08:07:32.832Z,10.00
2018-12-15T08:08:32.752Z,10.30
2018-12-15T08:09:32.697Z,10.00
2018-12-15T08:10:32.641Z,10.30
2018-12-15T08:11:32.586Z,10.30
2018-12-15T08:12:32.548Z,10.00
2018-12-15T08:13:32.467Z,9.90
2018-12-15T08:14:32.414Z,9.70
2018-12-15T08:15:32.352Z,10.00
2018-12-15T08:16:32.296Z,10.50
2018-12-15T08:17:32.261Z,9.30
2018-12-15T08:18:32.185Z,9.80
2018-12-15T08:19:32.123Z,9.20
2018-12-15T08:20:32.069Z,9.50
2018-12-15T08:21:32.009Z,10.00
2018-12-15T08:22:31.976Z,10.20
2018-12-15T08:23:31.893Z,9.70
2018-12-15T08:24:31.840Z,9.90
2018-12-15T08:25:31.791Z,9.90
2018-12-15T08:26:31.722Z,9.70
2018-12-15T08:27:31.691Z,9.80
2018-12-15T08:28:31.608Z,9.90
2018-12-15T08:29:31.553Z,9.50
2018-12-15T08:30:31.493Z,9.50
2018-12-15T08:31:31.440Z,10.40
2018-12-15T08:32:31.399Z,10.70
2018-12-15T08:33:31.322Z,9.70
2018-12-15T08:34:31.263Z,9.80
2018-12-15T08:35:31.208Z,9.60
2018-12-15T08:36:31.152Z,10.10
2018-12-15T08:37:31.113Z,9.80
2018-12-15T08:38:31.049Z,10.10
2018-12-15T08:39:30.980Z,9.30
2018-12-15T08:40:30.948Z,9.60
2018-12-15T08:41:30.863Z,9.20
2018-12-15T08:42:30.832Z,9.10
2018-12-15T08:43:30.748Z,8.50
2018-12-15T08:44:30.693Z,8.50
2018-12-15T08:45:30.633Z,8.80
2018-12-15T08:46:30.578Z,8.60
2018-12-15T08:47:30.544Z,8.30
2018-12-15T08:48:30.463Z,8.90
2018-12-15T08:49:30.413Z,8.70
2018-12-15T08:50:30.348Z,8.60
2018-12-15T08:51:30.293Z,9.00
2018-12-15T08:52:30.281Z,9.20
2018-12-15T08:53:30.182Z,9.00
2018-12-15T08:54:30.122Z,9.40
2018-12-15T08:55:30.064Z,9.30
2018-12-15T08:56:30.008Z,9.00
2018-12-15T08:57:29.948Z,8.80
2018-12-15T08:58:29.917Z,9.00
2018-12-15T08:59:29.834Z,8.80
2018-12-15T09:00:29.779Z,8.30
2018-12-15T09:01:29.721Z,8.60
2018-12-15T09:02:29.662Z,8.10
2018-12-15T09:03:29.630Z,8.80
2018-12-15T09:04:29.552Z,8.30
2018-12-15T09:05:29.494Z,8.90
2018-12-15T09:06:29.435Z,8.30
2018-12-15T09:07:29.374Z,8.90
2018-12-15T09:08:29.342Z,8.50
2018-12-15T09:09:29.263Z,8.60
2018-12-15T09:10:29.260Z,8.30
2018-12-15T09:11:29.149Z,8.50
2018-12-15T09:12:29.093Z,8.30
2018-12-15T09:13:29.057Z,8.50
2018-12-15T09:14:28.979Z,8.40
2018-12-15T09:15:28.921Z,8.40
2018-12-15T09:16:28.864Z,8.10
2018-12-15T09:17:28.804Z,8.40
2018-12-15T09:18:28.773Z,8.40
2018-12-15T09:19:28.689Z,8.60
2018-12-15T09:20:28.634Z,8.30
2018-12-15T09:21:28.579Z,8.80
2018-12-15T09:22:28.519Z,9.10
2018-12-15T09:23:28.478Z,8.20
2018-12-15T09:24:28.404Z,8.30
2018-12-15T09:25:28.349Z,8.60
2018-12-15T09:26:28.277Z,8.10
2018-12-15T09:27:28.246Z,8.80
2018-12-15T09:28:28.198Z,9.00
2018-12-15T09:29:28.119Z,8.20
2018-12-15T09:30:28.069Z,8.40
2018-12-15T09:31:28.004Z,8.00
2018-12-15T09:32:27.937Z,8.80
2018-12-15T09:33:27.913Z,8.90
2018-12-15T09:34:27.840Z,8.60
2018-12-15T09:35:27.779Z,8.70
2018-12-15T09:36:27.719Z,8.90
2018-12-15T09:37:27.663Z,8.30
2018-12-15T09:38:27.628Z,8.40
2018-12-15T09:39:27.550Z,8.30
2018-12-15T09:40:27.493Z,8.40
2018-12-15T09:41:27.433Z,8.00
2018-12-15T09:42:27.378Z,8.60
2018-12-15T09:43:27.343Z,8.50
2018-12-15T09:44:27.264Z,8.40
2018-12-15T09:45:27.204Z,8.40
2018-12-15T09:46:27.150Z,8.60
2018-12-15T09:47:27.097Z,8.80
2018-12-15T09:48:27.081Z,8.80
2018-12-15T09:49:26.972Z,8.60
2018-12-15T09:50:26.923Z,9.50
2018-12-15T09:51:26.863Z,9.20
2018-12-15T09:52:26.805Z,8.90
2018-12-15T09:53:26.749Z,8.10
2018-12-15T09:54:26.719Z,9.30
2018-12-15T09:55:26.634Z,8.70
2018-12-15T09:56:26.570Z,8.80
2018-12-15T09:57:26.523Z,8.80
2018-12-15T09:58:26.464Z,8.50
2018-12-15T09:59:26.432Z,8.90
2018-12-15T10:00:26.348Z,8.80
2018-12-15T10:01:26.291Z,8.80
2018-12-15T10:02:26.235Z,8.30
2018-12-15T10:03:26.177Z,7.90
2018-12-15T10:04:26.143Z,8.50
2018-12-15T10:05:26.064Z,8.20
2018-12-15T10:06:26.009Z,8.20
2018-12-15T10:07:25.951Z,8.60
2018-12-15T10:08:25.893Z,8.90
2018-12-15T10:09:25.858Z,8.40
2018-12-15T10:10:25.781Z,8.30
2018-12-15T10:11:25.726Z,8.90
2018-12-15T10:12:25.665Z,8.20
2018-12-15T10:13:25.608Z,8.80
2018-12-15T10:14:25.577Z,8.90
2018-12-15T10:15:25.495Z,9.00
2018-12-15T10:16:25.438Z,8.20
2018-12-15T10:17:25.383Z,8.60
2018-12-15T10:18:25.329Z,8.50
2018-12-15T10:19:25.296Z,8.00
2018-12-15T10:20:25.209Z,7.90
2018-12-15T10:21:25.144Z,8.20
2018-12-15T10:22:25.105Z,8.20
2018-12-15T10:23:25.046Z,8.10
2018-12-15T10:24:24.998Z,8.80
2018-12-15T10:25:24.927Z,8.30
2018-12-15T10:26:24.877Z,8.60
2018-12-15T10:27:24.812Z,8.30
2018-12-15T10:28:24.758Z,8.20
2018-12-15T10:29:24.721Z,8.30
2018-12-15T10:30:24.643Z,9.10
2018-12-15T10:31:24.586Z,8.90
2018-12-15T10:32:24.529Z,8.80
2018-12-15T10:33:24.472Z,8.90
2018-12-15T10:34:24.436Z,9.00
2018-12-15T10:35:24.353Z,8.80
2018-12-15T10:36:24.303Z,9.30
2018-12-15T10:37:24.239Z,8.60
2018-12-15T10:38:24.187Z,8.80
2018-12-15T10:39:24.164Z,8.90
2018-12-15T10:40:24.075Z,8.30
2018-12-15T10:41:24.008Z,9.60
2018-12-15T10:42:23.959Z,8.30
2018-12-15T10:43:23.902Z,8.80
2018-12-15T10:44:23.837Z,8.80
2018-12-15T10:45:23.799Z,9.00
2018-12-15T10:46:23.734Z,8.30
2018-12-15T10:47:23.672Z,8.30
2018-12-15T10:48:23.605Z,8.20
2018-12-15T10:49:23.561Z,8.60
2018-12-15T10:50:23.526Z,8.50
2018-12-15T10:51:23.447Z,8.80
2018-12-15T10:52:23.392Z,8.40
2018-12-15T10:53:23.332Z,8.20
2018-12-15T10:54:23.273Z,8.50
2018-12-15T10:55:23.239Z,8.40
2018-12-15T10:56:23.163Z,8.40
2018-12-15T10:57:23.176Z,7.80
2018-12-15T10:58:23.050Z,8.30
2018-12-15T10:59:22.993Z,8.00
2018-12-15T11:00:22.952Z,8.70
2018-12-15T11:01:22.876Z,8.20
2018-12-15T11:02:22.822Z,8.40
2018-12-15T11:03:22.762Z,8.60
2018-12-15T11:04:22.709Z,8.30
2018-12-15T11:05:22.672Z,8.20
2018-12-15T11:06:22.595Z,7.80
2018-12-15T11:07:22.533Z,8.50
2018-12-15T11:08:22.478Z,8.50
2018-12-15T11:09:22.421Z,8.30
2018-12-15T11:10:22.388Z,8.80
2018-12-15T11:11:22.309Z,8.40
2018-12-15T11:12:22.255Z,8.20
2018-12-15T11:13:22.192Z,8.30
2018-12-15T11:14:22.141Z,8.00
2018-12-15T11:15:22.106Z,7.90
2018-12-15T11:16:22.072Z,8.50
2018-12-15T11:17:21.968Z,8.60
2018-12-15T11:18:21.911Z,8.60
2018-12-15T11:19:21.851Z,8.60
2018-12-15T11:20:21.837Z,7.80
2018-12-15T11:21:21.737Z,8.40
2018-12-15T11:22:21.681Z,7.90
2018-12-15T11:23:21.631Z,8.50
2018-12-15T11:24:21.566Z,8.40
2018-12-15T11:25:21.511Z,8.50
2018-12-15T11:26:21.483Z,8.60
2018-12-15T11:27:21.409Z,9.20
2018-12-15T11:28:21.341Z,7.90
2018-12-15T11:29:21.289Z,8.00
2018-12-15T11:30:21.228Z,8.60
2018-12-15T11:31:21.195Z,8.10
2018-12-15T11:32:21.111Z,8.30
2018-12-15T11:33:21.055Z,8.40
2018-12-15T11:34:21.001Z,8.70
2018-12-15T11:35:20.937Z,8.10
2018-12-15T11:36:20.985Z,8.30
2018-12-15T11:37:20.843Z,8.40
2018-12-15T11:38:20.772Z,8.00
2018-12-15T11:39:20.717Z,8.90
2018-12-15T11:40:20.656Z,8.10
2018-12-15T11:41:20.627Z,8.30
2018-12-15T11:42:20.548Z,8.90
2018-12-15T11:43:20.486Z,8.70
2018-12-15T11:44:20.431Z,8.50
2018-12-15T11:45:20.374Z,8.70
2018-12-15T11:46:20.344Z,8.80
2018-12-15T11:47:20.258Z,8.80
2018-12-15T11:48:20.202Z,9.20
2018-12-15T11:49:20.152Z,9.00
2018-12-15T11:50:20.090Z,8.50
2018-12-15T11:51:20.121Z,8.40
2018-12-15T11:52:19.968Z,9.00
2018-12-15T11:53:19.920Z,8.60
2018-12-15T11:54:19.861Z,9.00
2018-12-15T11:55:19.808Z,9.10
2018-12-15T11:56:19.773Z,8.70
2018-12-15T11:57:19.702Z,8.60
2018-12-15T11:58:19.631Z,9.30
2018-12-15T11:59:19.572Z,9.20
2018-12-15T12:00:19.520Z,9.30
2018-12-15T12:01:19.485Z,9.50
2018-12-15T12:02:19.412Z,8.70
2018-12-15T12:03:19.352Z,8.90
2018-12-15T12:04:19.291Z,9.10
2018-12-15T12:05:19.240Z,9.20
2018-12-15T12:06:19.205Z,9.40
2018-12-15T12:07:19.121Z,9.40
2018-12-15T12:08:19.072Z,9.80
2018-12-15T12:09:19.013Z,8.70
2018-12-15T12:10:18.955Z,8.70
2018-12-15T12:11:18.915Z,8.40
2018-12-15T12:12:18.841Z,9.00
2018-12-15T12:13:18.787Z,9.20
2018-12-15T12:14:18.730Z,9.10
2018-12-15T12:15:18.669Z,8.90
2018-12-15T12:16:18.640Z,9.10
2018-12-15T12:17:18.555Z,9.30
2018-12-15T12:18:18.498Z,9.00
2018-12-15T12:19:18.447Z,9.00
2018-12-15T12:20:18.386Z,9.30
2018-12-15T12:21:18.356Z,9.40
2018-12-15T12:22:18.273Z,8.80
2018-12-15T12:23:18.213Z,8.50
2018-12-15T12:24:18.155Z,8.80
2018-12-15T12:25:18.099Z,9.40
2018-12-15T12:26:18.082Z,9.40
2018-12-15T12:27:17.989Z,8.80
2018-12-15T12:28:17.931Z,9.20
2018-12-15T12:29:17.874Z,9.10
2018-12-15T12:30:17.822Z,8.90
2018-12-15T12:31:17.759Z,9.20
2018-12-15T12:32:17.727Z,8.90
2018-12-15T12:33:17.647Z,9.70
2018-12-15T12:34:17.589Z,9.40
2018-12-15T12:35:17.533Z,9.40
2018-12-15T12:36:17.477Z,9.40
2018-12-15T12:37:17.446Z,9.80
2018-12-15T12:38:17.363Z,9.30
2018-12-15T12:39:17.308Z,9.50
2018-12-15T12:40:17.248Z,9.10
2018-12-15T12:41:17.192Z,9.30
2018-12-15T12:42:17.161Z,9.50
2018-12-15T12:43:17.087Z,9.30
2018-12-15T12:44:17.031Z,8.50
2018-12-15T12:45:16.964Z,9.20
2018-12-15T12:46:16.912Z,8.60
2018-12-15T12:47:16.877Z,9.20
2018-12-15T12:48:16.796Z,9.20
2018-12-15T12:49:16.737Z,9.30
2018-12-15T12:50:16.682Z,9.00
2018-12-15T12:51:16.615Z,8.60
2018-12-15T12:52:16.588Z,9.00
2018-12-15T12:53:16.514Z,8.70
2018-12-15T12:54:16.456Z,8.90
2018-12-15T12:55:16.397Z,9.30
2018-12-15T12:56:16.341Z,9.60
2018-12-15T12:57:16.306Z,9.40
2018-12-15T12:58:16.227Z,9.30
2018-12-15T12:59:16.181Z,9.50
2018-12-15T13:00:16.112Z,9.40
2018-12-15T13:01:16.057Z,9.90
2018-12-15T13:02:16.025Z,9.50